Time;durP1;ratioP1;P1;durP2;ratioP2;P2;SDS_P1;SDS_P2;PMS_P1;PMS_P2;Temp;Humidity;BMP_temperature;BMP_pressure;BME280_temperature;BME280_humidity;BME280_pressure;Samples;Min_cycle;Max_cycle;Signal;HPM_P1;HPM_P2
2022/08/24 00:02:06;;;;;;;;;6.67;4.00;;;;;24.68;53.81;101170.03;5036970;28;45483;-62
2022/08/24 00:04:32;;;;;;;;;3.67;3.67;;;;;24.64;54.20;101171.56;5036945;28;45521;-62
2022/08/24 00:06:59;;;;;;;;;6.33;5.67;;;;;24.65;53.83;101174.03;5036671;28;45734;-62
2022/08/24 00:09:24;;;;;;;;;4.00;4.00;;;;;24.69;53.84;101172.53;5039152;28;45672;-62
2022/08/24 00:11:50;;;;;;;;;4.00;4.00;;;;;24.68;54.44;101170.03;5040203;28;45445;-63
2022/08/24 00:14:15;;;;;;;;;4.67;4.67;;;;;24.64;54.20;101152.53;5040791;28;45281;-61
2022/08/24 00:16:41;;;;;;;;;4.00;4.00;;;;;24.51;54.80;101138.00;5040204;28;46485;-63
2022/08/24 00:19:06;;;;;;;;;7.67;5.00;;;;;24.68;54.64;101167.31;5039943;28;45588;-61
2022/08/24 00:21:32;;;;;;;;;4.33;4.33;;;;;24.66;54.97;101164.84;5040335;28;45507;-61
2022/08/24 00:23:57;;;;;;;;;5.67;4.67;;;;;24.65;55.06;101165.06;5040490;28;45334;-62
2022/08/24 00:26:23;;;;;;;;;4.67;4.00;;;;;24.61;55.02;101163.81;5039914;28;45542;-62
2022/08/24 00:28:48;;;;;;;;;5.00;5.00;;;;;24.50;54.69;101149.13;5040209;28;45425;-62
2022/08/24 00:31:14;;;;;;;;;5.67;4.67;;;;;24.61;55.74;101161.09;5040041;28;45252;-61
2022/08/24 00:33:39;;;;;;;;;4.33;3.67;;;;;24.56;55.90;101162.63;5040132;28;45557;-62
2022/08/24 00:36:05;;;;;;;;;3.67;3.67;;;;;24.51;55.83;101161.66;5039912;28;45753;-61
2022/08/24 00:38:31;;;;;;;;;4.00;4.00;;;;;24.44;55.88;101155.47;5039894;28;45486;-61
2022/08/24 00:40:56;;;;;;;;;5.00;4.00;;;;;24.49;56.45;101170.03;5039968;28;45262;-61
2022/08/24 00:43:25;;;;;;;;;5.67;4.33;;;;;24.46;56.67;101170.50;5039918;28;45285;-61
2022/08/24 00:46:17;;;;;;;;;4.00;4.00;;;;;24.42;56.90;101169.25;5039601;28;47468;-61
2022/08/24 00:48:47;;;;;;;;;4.00;4.00;;;;;24.40;56.68;101165.94;5056564;28;45455;-61
2022/08/24 00:51:22;;;;;;;;;5.00;4.00;;;;;24.41;56.92;101162.16;5039721;28;45330;-61
2022/08/24 00:53:51;;;;;;;;;3.67;3.67;;;;;24.36;56.82;101163.88;5039855;28;45473;-61
2022/08/24 00:56:30;;;;;;;;;3.00;3.00;;;;;24.35;57.00;101163.06;5039321;28;46350;-62
2022/08/24 00:59:00;;;;;;;;;3.67;3.00;;;;;24.37;56.72;101160.94;5038133;28;45270;-62
2022/08/24 01:01:27;;;;;;;;;4.00;4.00;;;;;24.36;57.20;101169.31;5037959;28;45261;-61
2022/08/24 01:03:55;;;;;;;;;2.33;2.33;;;;;24.38;57.05;101169.94;5055196;28;45494;-61
2022/08/24 01:06:21;;;;;;;;;2.67;2.67;;;;;24.38;57.12;101167.22;5039297;28;46674;-61
2022/08/24 01:08:46;;;;;;;;;3.67;3.67;;;;;23.92;57.11;101085.09;5037954;28;45390;-61
2022/08/24 01:11:16;;;;;;;;;4.67;3.00;;;;;24.35;57.26;101163.06;5039075;28;55180;-61
2022/08/24 01:13:45;;;;;;;;;2.67;2.67;;;;;24.35;57.34;101164.94;5039866;28;45479;-61
2022/08/24 01:16:13;;;;;;;;;4.00;4.00;;;;;24.32;57.18;101158.09;5039477;28;45725;-61
2022/08/24 01:18:48;;;;;;;;;2.67;2.67;;;;;24.30;57.60;101170.22;5039346;28;45307;-61
2022/08/24 01:21:16;;;;;;;;;2.67;2.67;;;;;24.31;57.18;101161.84;5039005;28;45385;-62
2022/08/24 01:23:43;;;;;;;;;2.00;2.00;;;;;24.28;56.87;101151.41;5039284;28;45477;-61
2022/08/24 01:26:13;;;;;;;;;2.00;2.00;;;;;24.28;57.51;101165.00;5038889;28;46561;-62
2022/08/24 01:28:39;;;;;;;;;4.00;2.67;;;;;24.22;57.40;101157.72;5039128;28;45339;-61
2022/08/24 01:31:05;;;;;;;;;3.33;3.33;;;;;23.84;57.47;101093.53;5037931;28;45383;-61
2022/08/24 01:33:32;;;;;;;;;6.33;4.00;;;;;23.69;57.78;101076.75;5039367;28;45533;-61
2022/08/24 01:36:03;;;;;;;;;4.00;4.00;;;;;24.19;58.02;101164.44;5037512;28;47923;-62
2022/08/24 01:38:30;;;;;;;;;3.00;3.00;;;;;24.12;57.67;101152.81;5038676;28;46512;-61
2022/08/24 01:40:58;;;;;;;;;2.33;2.33;;;;;24.13;58.04;101156.34;5037814;28;45450;-61
2022/08/24 01:43:24;;;;;;;;;3.33;2.33;;;;;24.08;58.51;101164.34;5038001;28;45407;-62
2022/08/24 01:45:50;;;;;;;;;3.00;3.00;;;;;23.55;58.72;101077.88;5038770;28;46834;-62
2022/08/24 01:48:15;;;;;;;;;3.67;3.67;;;;;24.00;58.92;101176.31;5038636;28;45252;-62
2022/08/24 01:50:41;;;;;;;;;3.33;3.33;;;;;23.82;58.83;101152.63;5038752;28;46161;-61
2022/08/24 01:53:07;;;;;;;;;2.00;2.00;;;;;23.90;58.89;101171.38;5037635;28;45329;-61
2022/08/24 01:55:33;;;;;;;;;3.00;3.00;;;;;23.79;59.15;101163.13;5038503;28;46469;-61
2022/08/24 01:57:59;;;;;;;;;4.00;2.67;;;;;23.85;59.61;101173.94;5038471;28;45445;-62
2022/08/24 02:00:25;;;;;;;;;2.00;2.00;;;;;23.68;59.18;101140.25;5038820;28;45276;-61
2022/08/24 02:02:51;;;;;;;;;3.00;3.00;;;;;23.83;59.63;101170.63;5038730;28;45473;-62
2022/08/24 02:05:17;;;;;;;;;3.00;3.00;;;;;22.75;59.32;100997.03;5036921;28;46929;-61
2022/08/24 02:07:43;;;;;;;;;2.00;2.00;;;;;22.27;59.61;100903.75;5037086;28;45236;-61
2022/08/24 02:10:13;;;;;;;;;3.00;3.00;;;;;23.79;59.68;101168.53;5038660;28;45565;-61
2022/08/24 02:12:40;;;;;;;;;4.33;4.33;;;;;23.78;59.55;101162.28;5038655;28;45299;-62
2022/08/24 02:15:07;;;;;;;;;4.00;4.00;;;;;23.61;59.79;101155.72;5038211;28;46200;-62
2022/08/24 02:17:33;;;;;;;;;4.00;4.00;;;;;23.77;59.86;101155.19;5038436;28;45249;-61
2022/08/24 02:19:59;;;;;;;;;2.33;2.33;;;;;23.80;59.04;101160.19;5038154;28;45147;-61
2022/08/24 02:22:24;;;;;;;;;4.00;3.00;;;;;23.81;59.71;101163.72;5038604;28;45234;-61
2022/08/24 02:24:50;;;;;;;;;3.00;3.00;;;;;23.41;59.43;101090.69;5053640;28;46367;-61
2022/08/24 02:27:15;;;;;;;;;2.00;2.00;;;;;23.85;59.02;101165.78;5038303;28;45301;-62
2022/08/24 02:29:41;;;;;;;;;3.00;3.00;;;;;23.73;59.12;101151.25;5038417;28;45233;-61
2022/08/24 02:32:07;;;;;;;;;3.33;3.33;;;;;23.81;59.32;101163.72;5037119;28;45574;-61
2022/08/24 02:34:33;;;;;;;;;4.00;2.67;;;;;23.77;59.22;101155.19;5036427;28;46613;-62
2022/08/24 02:36:58;;;;;;;;;4.67;4.67;;;;;23.75;59.83;101160.00;5037949;28;45456;-61
2022/08/24 02:39:24;;;;;;;;;3.67;3.67;;;;;23.56;59.41;101125.66;5038091;28;45280;-62
2022/08/24 02:41:50;;;;;;;;;3.00;3.00;;;;;23.75;59.09;101160.00;5038238;28;45193;-62
2022/08/24 02:44:16;;;;;;;;;3.00;3.00;;;;;23.77;59.39;101160.63;5037640;28;46828;-61
2022/08/24 02:46:41;;;;;;;;;3.67;3.00;;;;;23.75;58.97;101146.44;5037599;28;45239;-60
2022/08/24 02:49:07;;;;;;;;;3.00;3.00;;;;;23.77;58.74;101157.91;5037500;28;45404;-61
2022/08/24 02:51:33;;;;;;;;;2.00;2.00;;;;;23.88;58.69;101159.09;5038061;28;45522;-61
2022/08/24 02:54:00;;;;;;;;;3.00;3.00;;;;;23.88;59.26;101162.63;5036248;28;46743;-61
2022/08/24 02:56:28;;;;;;;;;3.67;3.67;;;;;23.84;59.22;101161.41;5037708;28;45321;-61
2022/08/24 02:58:54;;;;;;;;;3.00;2.67;;;;;23.84;59.27;101160.59;5037992;28;45388;-61
2022/08/24 03:01:19;;;;;;;;;3.33;3.33;;;;;23.84;59.42;101172.28;5037796;28;45341;-61
2022/08/24 03:03:45;;;;;;;;;4.00;4.00;;;;;23.83;59.46;101159.75;5037648;28;45425;-61
2022/08/24 03:06:11;;;;;;;;;3.00;3.00;;;;;23.73;58.99;101148.53;5037824;28;45387;-62
2022/08/24 03:08:37;;;;;;;;;2.67;2.67;;;;;23.83;59.46;101154.31;5037753;28;45271;-61
2022/08/24 03:11:03;;;;;;;;;4.00;3.00;;;;;23.77;59.75;101163.34;5037961;28;45589;-62
2022/08/24 03:13:29;;;;;;;;;4.00;4.00;;;;;23.71;59.46;101164.22;5037240;28;46868;-62
2022/08/24 03:15:56;;;;;;;;;3.00;3.00;;;;;23.56;59.60;101136.53;5037350;28;45209;-62
2022/08/24 03:18:24;;;;;;;;;2.00;2.00;;;;;23.75;59.04;101165.44;5037249;28;45531;-62
2022/08/24 03:20:50;;;;;;;;;4.00;4.00;;;;;23.38;59.15;101108.25;5037604;28;45340;-61
2022/08/24 03:23:15;;;;;;;;;4.67;4.67;;;;;23.69;59.12;101162.78;5037232;28;47698;-62
2022/08/24 03:25:40;;;;;;;;;3.00;3.00;;;;;23.69;59.13;101162.78;5037195;28;45478;-62
2022/08/24 03:28:06;;;;;;;;;5.67;4.67;;;;;23.70;59.04;101159.84;5037318;28;45284;-61
2022/08/24 03:30:31;;;;;;;;;3.67;3.67;;;;;23.73;59.32;101164.84;5037664;28;45298;-63
2022/08/24 03:32:57;;;;;;;;;4.00;4.00;;;;;23.21;59.43;101069.13;5036714;28;49462;-62
2022/08/24 03:35:22;;;;;;;;;5.33;4.67;;;;;23.73;59.43;101170.25;5037200;28;45197;-61
2022/08/24 03:37:49;;;;;;;;;4.00;4.00;;;;;23.69;59.05;101158.19;5037000;28;45427;-61
2022/08/24 03:40:15;;;;;;;;;5.33;5.33;;;;;23.65;59.62;101156.97;5037264;28;45133;-61
2022/08/24 03:42:41;;;;;;;;;5.33;5.33;;;;;23.57;59.97;101155.34;5036331;28;47416;-61
2022/08/24 03:45:07;;;;;;;;;6.67;5.67;;;;;23.53;60.30;101150.53;5036950;28;45480;-62
2022/08/24 03:47:32;;;;;;;;;5.00;5.00;;;;;23.48;60.21;101155.81;5036977;28;45407;-61
2022/08/24 03:49:58;;;;;;;;;5.33;5.00;;;;;23.50;60.88;101159.13;5036734;28;45334;-62
2022/08/24 03:52:23;;;;;;;;;6.00;6.00;;;;;23.48;60.11;101139.53;5036835;28;46239;-62
2022/08/24 03:54:49;;;;;;;;;6.00;6.00;;;;;23.46;60.17;101150.59;5036892;28;45378;-62
2022/08/24 03:57:14;;;;;;;;;5.33;4.33;;;;;22.88;60.11;101052.25;5037093;28;45495;-61
2022/08/24 03:59:40;;;;;;;;;5.00;5.00;;;;;23.48;60.07;101147.66;5036989;28;45534;-62
2022/08/24 04:02:07;;;;;;;;;6.00;6.00;;;;;23.44;60.09;101143.72;5036568;28;46058;-62
2022/08/24 04:04:32;;;;;;;;;5.67;4.33;;;;;23.49;59.93;101152.03;5036774;28;45362;-62
2022/08/24 04:06:57;;;;;;;;;5.00;4.00;;;;;23.13;60.27;101080.25;5036694;28;45277;-61
2022/08/24 04:09:23;;;;;;;;;4.67;4.67;;;;;23.51;59.86;101155.34;5037029;28;45441;-62
2022/08/24 04:11:49;;;;;;;;;6.00;6.00;;;;;22.87;59.88;101039.75;5036591;28;46603;-62
2022/08/24 04:14:15;;;;;;;;;6.00;6.00;;;;;23.48;60.24;101144.94;5036882;28;45327;-62
2022/08/24 04:16:40;;;;;;;;;6.00;6.00;;;;;23.51;60.10;101144.50;5036522;28;45481;-62
2022/08/24 04:19:06;;;;;;;;;5.67;5.33;;;;;23.43;60.42;101145.63;5036874;28;45222;-62
2022/08/24 04:21:34;;;;;;;;;7.67;7.33;;;;;23.44;60.59;101154.59;5036437;28;47609;-62
2022/08/24 04:24:00;;;;;;;;;6.00;6.00;;;;;23.40;60.70;101151.44;5036553;28;45329;-61
2022/08/24 04:26:30;;;;;;;;;4.33;4.33;;;;;23.38;60.28;101158.97;5036657;28;45328;-61
2022/08/24 04:28:56;;;;;;;;;6.00;6.00;;;;;23.38;60.58;101157.09;5036809;28;45227;-61
2022/08/24 04:31:22;;;;;;;;;9.67;7.67;;;;;23.34;60.39;101152.34;5035882;28;47304;-61
2022/08/24 04:33:51;;;;;;;;;7.33;7.33;;;;;23.32;60.86;101155.25;5036246;28;45356;-62
2022/08/24 04:36:19;;;;;;;;;6.00;6.00;;;;;23.27;61.15;101149.66;5036587;28;45434;-62
2022/08/24 04:38:46;;;;;;;;;7.00;7.00;;;;;23.28;60.73;101156.75;5036240;28;45372;-62
2022/08/24 04:41:13;;;;;;;;;7.67;7.67;;;;;23.32;60.80;101155.25;5036189;28;46667;-61
2022/08/24 04:43:41;;;;;;;;;7.67;7.67;;;;;23.31;60.80;101153.59;5035982;28;45427;-60
2022/08/24 04:46:07;;;;;;;;;6.67;5.67;;;;;23.29;61.38;101152.16;5036289;28;45305;-62
2022/08/24 04:48:34;;;;;;;;;6.33;6.33;;;;;23.32;61.56;101157.16;5036539;28;45470;-62
2022/08/24 04:51:05;;;;;;;;;7.33;7.33;;;;;22.75;61.25;101047.69;5034582;28;47473;-61
2022/08/24 04:53:31;;;;;;;;;7.67;6.00;;;;;23.23;61.60;101143.03;5035865;28;45293;-62
2022/08/24 04:55:58;;;;;;;;;12.33;9.33;;;;;23.16;61.82;101147.63;5038230;28;45255;-62
2022/08/24 04:58:24;;;;;;;;;6.67;6.67;;;;;23.23;61.29;101145.72;5039934;28;45461;-63
2022/08/24 05:00:49;;;;;;;;;5.67;5.67;;;;;23.24;61.35;101147.41;5039518;28;46240;-64
2022/08/24 05:03:15;;;;;;;;;8.67;8.00;;;;;23.23;61.64;101156.59;5038912;28;47364;-62
2022/08/24 05:05:44;;;;;;;;;8.00;8.00;;;;;23.28;61.69;101159.47;5039172;28;45545;-62
2022/08/24 05:08:11;;;;;;;;;8.33;7.67;;;;;23.27;61.86;101174.09;5039578;28;45484;-61
2022/08/24 05:10:39;;;;;;;;;9.67;8.67;;;;;23.20;61.52;101153.44;5038985;28;49425;-61
2022/08/24 05:13:05;;;;;;;;;7.67;7.67;;;;;23.13;61.69;101148.06;5039050;28;45230;-61
2022/08/24 05:15:30;;;;;;;;;8.00;7.00;;;;;23.16;61.40;101152.22;5039066;28;45218;-61
2022/08/24 05:17:56;;;;;;;;;8.00;8.00;;;;;23.24;62.10;101166.38;5039464;28;45406;-61
2022/08/24 05:20:21;;;;;;;;;8.00;7.00;;;;;23.28;61.56;101150.50;5038999;28;46359;-62
2022/08/24 05:22:46;;;;;;;;;8.00;8.00;;;;;23.29;61.35;101153.00;5039050;28;45486;-62
2022/08/24 05:25:12;;;;;;;;;7.00;7.00;;;;;23.22;61.53;101151.34;5039072;28;45339;-61
2022/08/24 05:27:37;;;;;;;;;7.00;7.00;;;;;23.31;61.18;101156.31;5039101;28;45425;-61
2022/08/24 05:30:03;;;;;;;;;8.67;6.33;;;;;23.13;61.51;101136.38;5054576;28;48645;-62
2022/08/24 05:32:29;;;;;;;;;7.33;7.33;;;;;23.25;61.03;101157.19;5038812;28;45224;-62
2022/08/24 05:34:54;;;;;;;;;8.00;7.00;;;;;23.32;60.87;101170.72;5054156;28;52993;-62
2022/08/24 05:37:19;;;;;;;;;7.00;7.00;;;;;23.29;61.16;101163.84;5039129;28;45158;-62
2022/08/24 05:39:45;;;;;;;;;9.67;8.00;;;;;23.29;61.39;101154.88;5038595;28;53221;-66
2022/08/24 05:42:10;;;;;;;;;6.00;6.00;;;;;23.36;60.96;101153.78;5038673;28;45360;-62
2022/08/24 05:44:36;;;;;;;;;6.67;5.67;;;;;23.35;60.71;101157.53;5038934;28;45462;-62
2022/08/24 05:47:02;;;;;;;;;7.00;7.00;;;;;23.29;60.92;101152.16;5039111;28;45561;-62
2022/08/24 05:49:27;;;;;;;;;8.33;8.00;;;;;23.43;60.93;101166.50;5038286;28;46948;-61
2022/08/24 05:51:53;;;;;;;;;7.00;6.00;;;;;23.43;61.13;101159.19;5037047;28;45573;-61
2022/08/24 05:54:20;;;;;;;;;6.00;6.00;;;;;23.47;60.92;101165.81;5038650;28;45376;-62
2022/08/24 05:56:46;;;;;;;;;7.00;6.00;;;;;23.48;60.81;101164.78;5038429;28;45470;-62
2022/08/24 05:59:13;;;;;;;;;7.67;7.00;;;;;23.51;60.54;101167.03;5038100;28;47546;-62
2022/08/24 06:01:40;;;;;;;;;7.67;7.00;;;;;23.49;60.17;101169.16;5038412;28;45451;-61
2022/08/24 06:04:05;;;;;;;;;8.00;8.00;;;;;23.38;60.48;101142.69;5038700;28;45531;-61
2022/08/24 06:06:31;;;;;;;;;6.33;5.00;;;;;23.62;60.22;101170.97;5038330;28;45388;-62
2022/08/24 06:08:58;;;;;;;;;5.67;5.67;;;;;23.49;59.65;101152.03;5038077;28;45897;-62
2022/08/24 06:11:23;;;;;;;;;5.00;5.00;;;;;23.70;59.27;101170.72;5038045;28;45466;-61
2022/08/24 06:13:53;;;;;;;;;4.00;4.00;;;;;23.73;59.08;101183.84;5037982;28;45426;-61
2022/08/24 06:16:19;;;;;;;;;6.00;5.00;;;;;23.71;58.99;101166.94;5038334;28;45339;-61
2022/08/24 06:18:45;;;;;;;;;5.33;4.33;;;;;23.74;58.30;101166.50;5037734;28;47276;-62
2022/08/24 06:21:13;;;;;;;;;6.00;6.00;;;;;23.61;58.76;101145.69;5037333;28;45389;-66
2022/08/24 06:23:40;;;;;;;;;5.00;4.00;;;;;23.76;58.30;101169.81;5033826;28;45484;-62
2022/08/24 06:28:51;;;;;;;;;7.67;6.00;;;;;23.89;58.38;101174.31;5037574;28;45358;-63
2022/08/24 06:31:18;;;;;;;;;8.00;7.00;;;;;23.89;57.96;101180.59;5051276;28;45280;-63
2022/08/24 06:33:43;;;;;;;;;6.00;5.00;;;;;24.23;57.83;101171.09;5037210;28;45505;-62
2022/08/24 06:36:09;;;;;;;;;8.00;7.00;;;;;25.05;55.70;101169.00;5035635;28;45498;-63
2022/08/24 06:38:35;;;;;;;;;5.67;5.67;;;;;25.96;53.52;101191.53;5037274;28;45597;-63
2022/08/24 06:41:00;;;;;;;;;6.33;5.33;;;;;26.79;51.29;101179.56;5037773;28;45496;-63
2022/08/24 06:43:26;;;;;;;;;4.67;4.67;;;;;27.36;49.64;101136.78;5019392;28;45357;-62
2022/08/24 06:45:53;;;;;;;;;7.00;5.00;;;;;28.40;47.38;101169.13;5019958;28;45389;-62
2022/08/24 06:48:19;;;;;;;;;6.75;6.75;;;;;29.05;45.73;101177.41;5019423;28;46831;-63
2022/08/24 06:50:45;;;;;;;;;6.00;5.00;;;;;29.68;44.32;101175.06;5015738;28;45274;-62
2022/08/24 06:53:14;;;;;;;;;5.33;5.33;;;;;30.04;43.22;101147.97;5017752;28;45474;-62
2022/08/24 06:55:49;;;;;;;;;6.67;5.33;;;;;30.59;41.69;101164.75;5020521;28;45473;-62
2022/08/24 06:58:15;;;;;;;;;4.33;4.33;;;;;31.10;40.98;101166.91;5022005;28;46369;-63
2022/08/24 07:00:40;;;;;;;;;5.00;5.00;;;;;31.60;39.59;101162.63;5017535;28;45411;-63
2022/08/24 07:03:06;;;;;;;;;7.33;6.33;;;;;32.02;38.05;101160.44;5042163;28;45540;-63
2022/08/24 07:05:31;;;;;;;;;5.33;5.00;;;;;32.70;37.46;101171.06;5026061;28;45258;-63
2022/08/24 07:07:58;;;;;;;;;8.33;5.67;;;;;33.22;36.11;101158.69;5029079;28;46856;-64
2022/08/24 07:10:24;;;;;;;;;5.67;5.00;;;;;33.84;35.07;101173.75;5023602;28;45329;-63
2022/08/24 07:12:49;;;;;;;;;4.67;4.67;;;;;34.32;34.43;101160.00;5037514;28;45284;-63
2022/08/24 07:15:15;;;;;;;;;5.00;5.00;;;;;34.96;33.00;101164.25;5037393;28;45305;-64
2022/08/24 07:17:40;;;;;;;;;3.67;3.67;;;;;35.46;32.96;101159.16;5036720;28;46600;-63
2022/08/24 07:20:07;;;;;;;;;7.00;7.00;;;;;35.99;30.54;101164.34;5033706;28;45217;-63
2022/08/24 07:22:33;;;;;;;;;3.67;3.67;;;;;36.14;29.76;101155.78;5017387;28;45498;-63
2022/08/24 07:24:58;;;;;;;;;5.67;3.33;;;;;36.59;29.48;101148.53;5017677;28;45375;-63
2022/08/24 07:27:23;;;;;;;;;4.00;3.00;;;;;36.69;28.78;101142.78;5016497;28;57174;-62
2022/08/24 07:29:53;;;;;;;;;3.00;3.00;;;;;37.07;28.44;101157.22;5017374;28;45415;-63
2022/08/24 07:32:19;;;;;;;;;4.67;4.67;;;;;37.67;28.57;101176.34;5016990;28;45234;-63
2022/08/24 07:34:44;;;;;;;;;5.00;4.00;;;;;38.17;27.95;101164.25;5017786;28;45369;-63
2022/08/24 07:37:10;;;;;;;;;6.00;5.00;;;;;38.67;26.57;101173.16;5021841;28;46213;-63
2022/08/24 07:39:36;;;;;;;;;5.00;4.67;;;;;38.98;26.60;101166.66;5016752;28;45197;-62
2022/08/24 07:42:01;;;;;;;;;5.00;3.00;;;;;39.05;26.01;101137.25;5034539;28;45231;-62
2022/08/24 07:44:26;;;;;;;;;3.67;3.67;;;;;39.31;25.89;101181.78;5020981;28;45526;-64
2022/08/24 07:46:52;;;;;;;;;5.33;4.33;;;;;39.34;25.55;101164.44;5015344;28;45901;-64
2022/08/24 07:49:17;;;;;;;;;2.00;2.00;;;;;39.04;25.21;101112.53;5016728;28;45462;-64
2022/08/24 07:51:43;;;;;;;;;4.00;4.00;;;;;39.38;24.62;101178.50;5017186;28;45374;-64
2022/08/24 07:54:08;;;;;;;;;4.00;4.00;;;;;39.05;24.75;101151.16;5017262;28;45448;-63
2022/08/24 07:56:34;;;;;;;;;6.67;5.00;;;;;39.36;25.04;101183.56;5015650;28;46511;-63
2022/08/24 07:58:59;;;;;;;;;3.33;3.33;;;;;39.64;24.99;101189.63;5016378;28;45352;-64
2022/08/24 08:01:25;;;;;;;;;5.00;4.00;;;;;39.78;24.52;101179.97;5043973;28;45513;-64
2022/08/24 08:03:51;;;;;;;;;3.67;3.67;;;;;39.96;24.39;101152.94;5030550;28;45408;-65
2022/08/24 08:06:18;;;;;;;;;1.67;1.67;;;;;40.40;23.90;101148.03;5022454;28;45617;-63
2022/08/24 08:08:44;;;;;;;;;4.33;4.33;;;;;41.18;23.25;101201.34;5020409;28;45500;-64
2022/08/24 08:11:10;;;;;;;;;3.67;2.33;;;;;41.39;21.88;101208.94;5028229;28;45582;-66
2022/08/24 08:13:36;;;;;;;;;5.33;3.00;;;;;41.21;22.17;101166.38;5019586;28;45384;-63
2022/08/24 08:16:02;;;;;;;;;6.67;6.67;;;;;41.41;22.04;101175.91;5028157;28;46274;-65
2022/08/24 08:18:29;;;;;;;;;4.00;4.00;;;;;41.37;22.21;101216.81;5017907;28;45549;-65
2022/08/24 08:20:55;;;;;;;;;3.00;3.00;;;;;41.28;22.26;101209.34;5026441;28;45531;-76
2022/08/24 08:26:07;;;;;;;;;3.67;3.67;;;;;41.19;22.24;101199.38;5014976;28;45454;-64
2022/08/24 08:28:33;;;;;;;;;5.67;4.00;;;;;41.34;22.26;101196.00;5019928;28;45351;-63
2022/08/24 08:31:04;;;;;;;;;4.00;4.00;;;;;41.18;21.81;101169.84;5025985;28;45310;-65
2022/08/24 08:33:30;;;;;;;;;2.00;2.00;;;;;41.27;22.49;101199.34;5030514;28;45585;-69
2022/08/24 08:36:02;;;;;;;;;1.67;1.67;;;;;40.83;21.37;101146.97;5026043;28;47046;-64
2022/08/24 08:38:27;;;;;;;;;2.67;2.67;;;;;41.17;21.61;101202.50;5030469;28;45593;-69
2022/08/24 08:41:49;;;;;;;;;1.00;1.00;;;;;41.37;20.93;101200.91;5030405;28;45325;-63
2022/08/24 08:44:14;;;;;;;;;1.00;1.00;;;;;41.52;20.33;101202.25;5067802;28;45377;-64
2022/08/24 08:47:21;;;;;;;;;2.00;2.00;;;;;41.56;20.72;101198.44;5067576;28;46329;-64
2022/08/24 08:50:13;;;;;;;;;1.33;1.33;;;;;41.22;20.55;101132.53;5030851;28;45634;-64
2022/08/24 08:53:06;;;;;;;;;1.33;1.33;;;;;41.56;20.26;101206.00;5026876;28;45320;-65
2022/08/24 08:55:40;;;;;;;;;1.33;1.33;;;;;41.55;20.01;101195.97;5038570;28;45324;-67
2022/08/24 08:58:42;;;;;;;;;1.67;1.67;;;;;41.74;20.39;101192.72;5038100;28;46487;-66
2022/08/24 09:01:40;;;;;;;;;0.00;0.00;;;;;41.89;20.03;101148.19;5032897;28;45437;-66
2022/08/24 09:04:08;;;;;;;;;2.00;2.00;;;;;42.20;19.61;101192.38;5022550;28;45589;-65
2022/08/24 09:07:11;;;;;;;;;1.00;1.00;;;;;42.29;19.34;101186.69;5030552;28;45605;-66
2022/08/24 09:10:09;;;;;;;;;0.00;0.00;;;;;42.47;19.15;101192.88;5055271;28;46363;-66
2022/08/24 09:12:51;;;;;;;;;0.00;0.00;;;;;42.61;18.99;101186.94;5042294;28;45638;-65
2022/08/24 09:15:47;;;;;;;;;0.33;0.33;;;;;42.75;18.71;101188.22;5034176;28;45583;-65
2022/08/24 09:18:21;;;;;;;;;0.33;0.00;;;;;42.69;18.88;101189.63;5031012;28;45337;-65
2022/08/24 09:20:47;;;;;;;;;0.33;0.33;;;;;42.91;18.17;101191.16;5028297;28;45886;-66
2022/08/24 09:23:30;;;;;;;;;0.67;0.67;;;;;43.02;18.35;101189.47;5017677;28;45372;-65
2022/08/24 09:26:16;;;;;;;;;0.00;0.00;;;;;42.51;18.31;101146.31;5023381;28;45350;-64
2022/08/24 09:29:29;;;;;;;;;0.67;0.67;;;;;43.10;17.77;101188.53;5024686;28;45490;-63
2022/08/24 09:32:20;;;;;;;;;1.00;1.00;;;;;43.84;17.38;101189.09;5024889;28;45730;-63
2022/08/24 09:34:58;;;;;;;;;2.00;2.00;;;;;44.96;16.12;101201.97;5034002;28;45584;-63
2022/08/24 09:38:13;;;;;;;;;1.67;1.67;;;;;45.21;16.94;101149.97;5028166;28;45348;-64
2022/08/24 09:41:01;;;;;;;;;2.33;1.00;;;;;45.54;16.47;101185.97;5022287;28;45601;-65
2022/08/24 09:43:39;;;;;;;;;0.67;0.67;;;;;46.04;16.60;101204.63;5020635;28;46222;-65
2022/08/24 09:46:31;;;;;;;;;1.33;1.33;;;;;46.55;14.73;101204.31;5018284;28;45410;-63
2022/08/24 09:49:15;;;;;;;;;0.33;0.33;;;;;47.33;14.13;101189.75;5024161;28;45512;-63
2022/08/24 09:51:44;;;;;;;;;0.67;0.67;;;;;47.82;14.06;101189.50;5024096;28;45479;-63
2022/08/24 09:54:18;;;;;;;;;0.67;0.67;;;;;47.98;13.26;101187.28;5019441;28;46497;-63
2022/08/24 09:57:15;;;;;;;;;0.67;0.67;;;;;48.11;13.39;101190.63;5027459;28;45461;-63
2022/08/24 09:59:59;;;;;;;;;0.67;0.67;;;;;48.34;13.51;101187.63;5026713;28;45234;-64
2022/08/24 10:02:43;;;;;;;;;0.67;0.67;;;;;48.88;13.74;101186.00;5036724;28;45507;-63
2022/08/24 10:05:26;;;;;;;;;0.33;0.33;;;;;49.51;12.88;101187.50;5034027;28;45585;-63
2022/08/24 10:08:23;;;;;;;;;1.00;1.00;;;;;49.53;12.90;101179.44;5038276;28;45369;-63
2022/08/24 10:10:51;;;;;;;;;2.00;2.00;;;;;49.29;12.43;101181.78;5033790;28;45439;-64
2022/08/24 10:13:35;;;;;;;;;1.00;1.00;;;;;48.78;13.26;101179.06;5032290;28;45432;-65
2022/08/24 10:16:32;;;;;;;;;0.00;0.00;;;;;47.68;14.25;101167.66;5018709;28;46830;-65
2022/08/24 10:18:58;;;;;;;;;0.67;0.67;;;;;46.85;14.49;101164.16;5025303;28;45474;-63
2022/08/24 10:21:39;;;;;;;;;0.00;0.00;;;;;45.89;14.46;101140.09;5018500;28;45557;-65
2022/08/24 10:24:31;;;;;;;;;0.00;0.00;;;;;44.85;16.03;101156.78;5018546;28;46443;-64
2022/08/24 10:27:12;;;;;;;;;0.33;0.33;;;;;43.74;16.60;101155.22;5017986;28;47064;-64
2022/08/24 10:29:52;;;;;;;;;0.33;0.33;;;;;42.91;17.67;101154.78;5020430;28;45570;-65
2022/08/24 10:32:47;;;;;;;;;0.00;0.00;;;;;41.60;18.71;101149.13;5029191;28;45213;-64
2022/08/24 10:35:19;;;;;;;;;1.33;0.67;;;;;40.05;19.95;101139.81;5018861;28;45359;-67
2022/08/24 10:40:58;;;;;;;;;1.67;1.00;;;;;38.35;22.20;101144.59;5020791;28;45292;-65
2022/08/24 10:43:47;;;;;;;;;1.00;0.00;;;;;37.58;23.31;101146.88;5028982;28;45340;-64
2022/08/24 10:46:38;;;;;;;;;1.00;1.00;;;;;37.02;23.61;101151.78;5037036;28;45390;-69
2022/08/24 10:49:33;;;;;;;;;2.00;1.00;;;;;36.26;24.98;101159.69;5034906;28;46379;-66
2022/08/24 10:52:25;;;;;;;;;1.00;1.00;;;;;35.86;25.48;101152.16;5016899;28;45426;-64
2022/08/24 10:54:50;;;;;;;;;2.00;2.00;;;;;35.50;26.23;101141.66;5023979;28;45349;-64
2022/08/24 10:57:37;;;;;;;;;1.67;1.00;;;;;34.92;26.14;101105.19;5022595;28;45477;-64
2022/08/24 11:00:15;;;;;;;;;0.67;0.67;;;;;34.07;27.56;101062.59;5024475;28;46567;-68
2022/08/24 11:02:44;;;;;;;;;1.00;1.00;;;;;34.21;27.92;101133.63;5018567;28;45305;-65
2022/08/24 11:05:29;;;;;;;;;2.00;2.00;;;;;34.10;27.98;101143.97;5036120;28;45350;-63
2022/08/24 11:08:00;;;;;;;;;1.67;1.67;;;;;33.88;28.54;101136.19;5035528;28;45394;-65
2022/08/24 11:10:29;;;;;;;;;0.33;0.33;;;;;33.72;28.73;101137.41;5020907;28;49031;-62
2022/08/24 11:12:55;;;;;;;;;2.00;0.67;;;;;33.54;29.03;101137.00;5019180;28;45536;-64
2022/08/24 11:15:25;;;;;;;;;1.00;1.00;;;;;33.33;29.21;101132.75;5018672;28;45340;-64
2022/08/24 11:18:02;;;;;;;;;0.67;0.67;;;;;32.82;29.34;101055.91;5017267;28;45448;-64
2022/08/24 11:20:33;;;;;;;;;1.00;1.00;;;;;33.10;30.06;101125.16;5017265;28;46440;-64
2022/08/24 11:23:07;;;;;;;;;1.00;1.00;;;;;32.90;30.31;101102.13;5036178;28;45415;-65
2022/08/24 11:25:37;;;;;;;;;1.00;1.00;;;;;32.93;30.42;101115.34;5037192;28;45268;-64
2022/08/24 11:28:26;;;;;;;;;0.33;0.33;;;;;32.67;30.63;101087.09;5037086;28;45310;-66
2022/08/24 11:30:51;;;;;;;;;2.67;1.00;;;;;32.53;30.51;101094.31;5036794;28;45922;-65
2022/08/24 11:33:26;;;;;;;;;1.00;1.00;;;;;32.54;30.74;101111.66;5036793;28;45434;-65
2022/08/24 11:35:51;;;;;;;;;1.33;1.33;;;;;31.96;31.02;101021.28;5034844;28;45589;-66
2022/08/24 11:38:20;;;;;;;;;2.00;2.00;;;;;32.43;31.14;101099.00;5035647;28;45407;-68
2022/08/24 11:40:54;;;;;;;;;1.00;1.00;;;;;32.10;31.03;101093.06;5025390;28;46285;-64
2022/08/24 11:43:44;;;;;;;;;2.67;2.67;;;;;32.22;31.07;101092.72;5035770;28;45400;-65
2022/08/24 11:46:15;;;;;;;;;1.00;1.00;;;;;32.15;30.98;101093.03;5037021;28;45260;-65
2022/08/24 11:48:55;;;;;;;;;0.67;0.67;;;;;32.08;31.13;101098.00;5035787;28;45387;-63